createdAt,value
2023-10-24T00:00:22.163Z,18.50
2023-10-24T00:02:49.639Z,21.33
2023-10-24T00:05:16.172Z,18.50
2023-10-24T00:07:42.763Z,20.00
2023-10-24T00:12:54.187Z,19.00
2023-10-24T00:15:20.703Z,24.00
2023-10-24T00:17:47.309Z,21.00
2023-10-24T00:20:13.878Z,17.00
2023-10-24T00:22:40.423Z,18.50
2023-10-24T00:27:51.757Z,17.00
2023-10-24T00:30:19.190Z,16.33
2023-10-24T00:32:45.840Z,18.00
2023-10-24T00:35:12.403Z,19.50
2023-10-24T00:37:38.972Z,18.00
2023-10-24T00:42:51.316Z,14.67
2023-10-24T00:45:17.823Z,20.00
2023-10-24T00:47:44.358Z,17.00
2023-10-24T00:50:11.812Z,21.67
2023-10-24T00:52:39.264Z,18.67
2023-10-24T00:55:06.740Z,19.67
2023-10-24T00:57:34.448Z,24.00
2023-10-24T01:00:00.924Z,17.00
2023-10-24T01:02:28.597Z,19.00
2023-10-24T01:04:56.112Z,20.67
2023-10-24T01:07:22.704Z,21.00
2023-10-24T01:09:49.256Z,22.00
2023-10-24T01:12:15.778Z,20.50
2023-10-24T01:14:43.230Z,21.00
2023-10-24T01:17:09.765Z,19.00
2023-10-24T01:19:36.349Z,20.50
2023-10-24T01:22:03.849Z,19.00
2023-10-24T01:24:31.204Z,15.33
2023-10-24T01:26:58.648Z,19.00
2023-10-24T01:29:25.173Z,22.00
2023-10-24T01:31:51.762Z,20.00
2023-10-24T01:34:19.322Z,17.00
2023-10-24T01:36:45.845Z,20.00
2023-10-24T01:39:12.385Z,21.50
2023-10-24T01:41:38.897Z,19.00
2023-10-24T01:44:05.435Z,21.50
2023-10-24T01:46:32.949Z,21.00
2023-10-24T01:49:00.388Z,20.00
2023-10-24T01:51:27.823Z,19.67
2023-10-24T01:53:54.334Z,21.00
2023-10-24T01:56:21.749Z,20.33
2023-10-24T01:58:49.142Z,20.67
2023-10-24T02:01:15.721Z,21.50
2023-10-24T02:03:42.389Z,22.50
2023-10-24T02:06:09.149Z,20.50
2023-10-24T02:08:36.630Z,20.67
2023-10-24T02:11:04.082Z,19.00
2023-10-24T02:16:15.622Z,20.00
2023-10-24T02:18:43.140Z,19.67
2023-10-24T02:21:10.587Z,22.67
2023-10-24T02:23:38.037Z,18.67
2023-10-24T02:26:04.558Z,24.00
2023-10-24T02:31:16.278Z,18.00
2023-10-24T02:33:43.767Z,19.00
2023-10-24T02:36:10.300Z,22.00
2023-10-24T02:38:36.896Z,25.50
2023-10-24T02:41:03.520Z,19.00
2023-10-24T02:46:15.835Z,28.00
2023-10-24T02:48:42.426Z,24.50
2023-10-24T02:51:09.912Z,28.50
2023-10-24T02:53:36.452Z,24.00
2023-10-24T02:56:03.908Z,19.67
2023-10-24T03:01:15.661Z,19.50
2023-10-24T03:03:42.296Z,25.00
2023-10-24T03:06:08.891Z,25.00
2023-10-24T03:08:35.423Z,22.50
2023-10-24T03:11:02.864Z,21.67
2023-10-24T03:16:14.695Z,22.67
2023-10-24T03:18:42.216Z,29.33
2023-10-24T03:21:08.824Z,25.00
2023-10-24T03:23:35.390Z,27.00
2023-10-24T03:26:01.923Z,27.50
2023-10-24T03:31:13.655Z,22.00
2023-10-24T03:33:40.270Z,25.50
2023-10-24T03:36:06.817Z,24.50
2023-10-24T03:38:34.295Z,27.00
2023-10-24T03:41:00.809Z,14.00
2023-10-24T03:46:12.462Z,26.50
2023-10-24T03:48:39.076Z,27.00
2023-10-24T03:51:06.545Z,22.67
2023-10-24T03:53:33.884Z,9.75
2023-10-24T03:56:01.349Z,27.00
2023-10-24T04:01:14.138Z,26.00
2023-10-24T04:03:40.883Z,23.00
2023-10-24T04:06:07.444Z,24.00
2023-10-24T04:08:33.973Z,28.00
2023-10-24T04:11:00.517Z,30.00
2023-10-24T04:16:12.316Z,32.50
2023-10-24T04:18:39.948Z,30.50
2023-10-24T04:21:06.532Z,28.50
2023-10-24T04:23:33.083Z,28.00
2023-10-24T04:26:00.566Z,40.67
2023-10-24T04:31:11.881Z,47.00
2023-10-24T04:33:38.492Z,46.50
2023-10-24T04:36:05.956Z,41.67
2023-10-24T04:38:33.425Z,44.67
2023-10-24T04:41:00.938Z,47.67
2023-10-24T04:46:22.368Z,47.00
2023-10-24T04:48:48.962Z,55.00
2023-10-24T04:51:16.433Z,46.50
2023-10-24T04:53:44.040Z,45.00
2023-10-24T04:56:11.569Z,40.00
2023-10-24T05:01:23.026Z,41.33
2023-10-24T05:03:50.579Z,44.00
2023-10-24T05:06:18.094Z,35.00
2023-10-24T05:08:45.583Z,39.00
2023-10-24T05:11:13.054Z,38.50
2023-10-24T05:13:40.613Z,37.67
2023-10-24T05:16:07.601Z,44.00
2023-10-24T05:18:34.407Z,43.50
2023-10-24T05:21:01.185Z,40.00
2023-10-24T05:23:27.956Z,37.00
2023-10-24T05:25:55.770Z,42.33
2023-10-24T05:28:23.636Z,48.33
2023-10-24T05:30:51.183Z,41.67
2023-10-24T05:33:17.914Z,40.00
2023-10-24T05:35:45.401Z,37.67
2023-10-24T05:38:12.887Z,37.50
2023-10-24T05:40:39.496Z,51.00
2023-10-24T05:43:06.058Z,46.50
2023-10-24T05:45:33.598Z,38.67
2023-10-24T05:48:01.125Z,43.33
2023-10-24T05:50:27.784Z,39.00
2023-10-24T05:52:54.375Z,41.00
2023-10-24T05:55:21.929Z,45.00
2023-10-24T05:57:49.413Z,39.00
2023-10-24T06:00:16.877Z,39.20
2023-10-24T06:02:44.392Z,41.00
2023-10-24T06:05:10.981Z,41.50
2023-10-24T06:07:37.605Z,55.00
2023-10-24T06:10:05.418Z,48.50
2023-10-24T06:12:32.942Z,44.00
2023-10-24T06:15:00.417Z,38.00
2023-10-24T06:17:26.970Z,40.50
2023-10-24T06:19:54.525Z,36.00
2023-10-24T06:22:21.106Z,33.50
2023-10-24T06:24:47.717Z,37.50
2023-10-24T06:27:15.292Z,34.00
2023-10-24T06:29:42.132Z,35.50
2023-10-24T06:34:53.999Z,40.00
2023-10-24T06:37:20.724Z,36.00
2023-10-24T06:39:48.269Z,36.00
2023-10-24T06:42:15.750Z,35.00
2023-10-24T06:44:43.216Z,39.00
2023-10-24T06:49:54.123Z,41.50
2023-10-24T06:52:20.745Z,45.00
2023-10-24T06:54:48.369Z,39.33
2023-10-24T06:57:15.838Z,39.80
2023-10-24T06:59:42.528Z,44.00
2023-10-24T07:04:53.159Z,45.00
2023-10-24T07:07:20.676Z,43.33
2023-10-24T07:09:48.157Z,40.33
2023-10-24T07:12:15.624Z,44.00
2023-10-24T07:14:42.326Z,52.00
2023-10-24T07:19:53.912Z,54.00
2023-10-24T07:22:21.461Z,50.00
2023-10-24T07:24:48.993Z,51.33
2023-10-24T07:27:16.464Z,47.33
2023-10-24T07:29:43.961Z,46.33
2023-10-24T07:34:56.532Z,44.00
2023-10-24T07:37:24.083Z,43.00
2023-10-24T07:39:50.677Z,45.00
2023-10-24T07:42:18.177Z,41.33
2023-10-24T07:44:45.703Z,44.67
2023-10-24T07:49:58.360Z,60.50
2023-10-24T07:52:24.990Z,59.00
2023-10-24T07:54:51.563Z,54.00
2023-10-24T07:57:19.019Z,50.00
2023-10-24T07:59:45.563Z,51.50
2023-10-24T08:04:56.901Z,46.00
2023-10-24T08:07:23.473Z,47.50
2023-10-24T08:09:50.976Z,48.67
2023-10-24T08:12:18.449Z,45.00
2023-10-24T08:14:45.954Z,47.00
2023-10-24T08:19:57.436Z,50.00
2023-10-24T08:22:24.319Z,48.00
2023-10-24T08:24:51.834Z,47.33
2023-10-24T08:27:19.314Z,41.00
2023-10-24T08:29:45.879Z,45.00
2023-10-24T08:35:07.447Z,43.33
2023-10-24T08:37:34.012Z,46.50
2023-10-24T08:40:00.788Z,40.50
2023-10-24T08:42:27.458Z,52.00
2023-10-24T08:44:54.054Z,53.50
2023-10-24T08:50:07.383Z,47.00
2023-10-24T08:52:34.936Z,45.33
2023-10-24T08:55:01.662Z,45.50
2023-10-24T08:57:29.210Z,41.67
2023-10-24T08:59:55.747Z,43.50
2023-10-24T09:05:08.256Z,44.00
2023-10-24T09:07:34.805Z,39.50
2023-10-24T09:10:01.379Z,44.50
2023-10-24T09:12:28.847Z,43.67
2023-10-24T09:14:55.473Z,38.00
2023-10-24T09:20:07.330Z,36.50
2023-10-24T09:22:34.864Z,37.33
2023-10-24T09:25:01.469Z,36.50
2023-10-24T09:27:28.093Z,39.50
2023-10-24T09:29:55.577Z,36.50
2023-10-24T09:32:22.974Z,23.33
2023-10-24T09:34:49.998Z,36.50
2023-10-24T09:37:18.077Z,51.67
2023-10-24T09:39:44.919Z,54.50
2023-10-24T09:42:11.509Z,49.00
2023-10-24T09:44:39.145Z,47.00
2023-10-24T09:47:07.630Z,73.33
2023-10-24T09:49:34.278Z,60.00
2023-10-24T09:52:00.897Z,56.00
2023-10-24T09:54:27.429Z,52.50
2023-10-24T09:56:53.985Z,44.00
2023-10-24T09:59:20.549Z,41.50
2023-10-24T10:02:01.498Z,43.00
2023-10-24T10:04:34.224Z,35.50
2023-10-24T10:07:04.037Z,32.50
2023-10-24T10:09:32.779Z,31.00
2023-10-24T10:12:00.273Z,27.00
2023-10-24T10:14:27.759Z,30.50
2023-10-24T10:16:54.407Z,27.50
2023-10-24T10:19:20.969Z,26.50
2023-10-24T10:21:48.477Z,26.33
2023-10-24T10:24:15.951Z,28.50
2023-10-24T10:26:42.470Z,23.50
2023-10-24T10:29:09.080Z,23.00
2023-10-24T10:32:37.376Z,25.50
2023-10-24T10:34:22.285Z,23.00
2023-10-24T10:36:48.907Z,23.00
2023-10-24T10:39:15.451Z,21.50
2023-10-24T10:41:42.889Z,19.00
2023-10-24T10:44:09.455Z,18.50
2023-10-24T10:46:36.004Z,18.00
2023-10-24T10:49:02.647Z,17.00
2023-10-24T10:51:30.059Z,16.67
2023-10-24T10:53:57.558Z,16.00
2023-10-24T10:56:24.317Z,15.50
2023-10-24T10:58:51.710Z,16.00
2023-10-24T11:01:19.146Z,17.00
2023-10-24T11:03:45.904Z,17.00
2023-10-24T11:09:07.543Z,18.00
2023-10-24T11:11:34.939Z,19.67
2023-10-24T11:14:01.544Z,14.00
2023-10-24T11:16:38.162Z,15.00
2023-10-24T11:19:05.456Z,15.00
2023-10-24T11:21:32.817Z,16.67
2023-10-24T11:24:01.240Z,16.40
2023-10-24T11:26:30.460Z,10.00
2023-10-24T11:28:58.863Z,13.40
2023-10-24T11:31:29.039Z,13.29
2023-10-24T11:33:55.711Z,13.50
2023-10-24T11:39:07.928Z,14.00
2023-10-24T11:41:36.300Z,12.00
2023-10-24T11:44:02.945Z,11.00
2023-10-24T11:46:29.486Z,14.00
2023-10-24T11:48:55.937Z,9.00
2023-10-24T11:54:06.321Z,11.50
2023-10-24T11:56:32.938Z,16.00
2023-10-24T11:58:59.551Z,10.50
2023-10-24T12:01:28.986Z,12.33
2023-10-24T12:03:58.312Z,10.83
2023-10-24T12:09:11.051Z,10.00
2023-10-24T12:11:37.561Z,12.00
2023-10-24T12:14:04.211Z,11.00
2023-10-24T12:16:39.796Z,12.00
2023-10-24T12:19:14.284Z,10.00
2023-10-24T12:24:24.904Z,11.00
2023-10-24T12:26:51.444Z,11.00
2023-10-24T12:29:17.939Z,10.00
2023-10-24T12:31:46.399Z,11.80
2023-10-24T12:34:14.852Z,12.40
2023-10-24T12:39:28.329Z,12.17
2023-10-24T12:41:54.843Z,12.00
2023-10-24T12:44:23.310Z,13.80
2023-10-24T12:46:49.875Z,11.00
2023-10-24T12:49:18.307Z,11.20
2023-10-24T12:54:32.773Z,11.60
2023-10-24T12:56:59.360Z,15.00
2023-10-24T12:59:25.919Z,13.00
2023-10-24T13:01:54.339Z,14.40
2023-10-24T13:04:21.747Z,13.00
2023-10-24T13:09:35.354Z,10.33
2023-10-24T13:12:01.918Z,12.00
2023-10-24T13:14:28.479Z,15.00
2023-10-24T13:17:01.957Z,15.00
2023-10-24T13:19:35.605Z,11.00
2023-10-24T13:24:56.284Z,13.00
2023-10-24T13:27:22.853Z,11.50
2023-10-24T13:29:51.207Z,12.00
2023-10-24T13:32:18.765Z,39.00
2023-10-24T13:40:00.523Z,14.80
2023-10-24T13:42:27.982Z,21.00
2023-10-24T13:44:55.373Z,17.00
2023-10-24T13:47:22.773Z,17.67
2023-10-24T13:49:49.350Z,18.00
2023-10-24T13:55:09.983Z,13.00
2023-10-24T13:57:36.587Z,12.00
2023-10-24T14:00:06.614Z,12.57
2023-10-24T14:02:34.175Z,17.33
2023-10-24T14:05:00.864Z,23.50
2023-10-24T14:10:12.578Z,17.00
2023-10-24T14:12:39.046Z,14.50
2023-10-24T14:15:07.546Z,14.33
2023-10-24T14:17:34.998Z,16.00
2023-10-24T14:20:01.582Z,22.50
2023-10-24T14:25:11.905Z,27.50
2023-10-24T14:27:38.423Z,24.00
2023-10-24T14:30:04.965Z,19.00
2023-10-24T14:32:32.479Z,19.00
2023-10-24T14:34:59.999Z,18.00
2023-10-24T14:40:11.542Z,14.00
2023-10-24T14:42:38.939Z,18.00
2023-10-24T14:45:05.438Z,15.50
2023-10-24T14:47:33.585Z,15.00
2023-10-24T14:50:02.094Z,15.00
2023-10-24T14:55:23.470Z,15.00
2023-10-24T14:57:50.032Z,15.00
2023-10-24T15:00:17.370Z,15.00
2023-10-24T15:02:43.935Z,13.50
2023-10-24T15:05:10.495Z,17.50
2023-10-24T15:10:21.207Z,15.50
2023-10-24T15:12:47.774Z,14.50
2023-10-24T15:15:14.323Z,17.00
2023-10-24T15:17:40.991Z,17.00
2023-10-24T15:20:08.412Z,16.33
2023-10-24T15:25:29.796Z,16.00
2023-10-24T15:27:57.151Z,17.00
2023-10-24T15:30:23.698Z,18.50
2023-10-24T15:32:50.369Z,22.00
2023-10-24T15:35:16.947Z,20.00
2023-10-24T15:37:43.501Z,17.00
2023-10-24T15:40:10.379Z,21.00
2023-10-24T15:42:37.852Z,21.67
2023-10-24T15:45:05.346Z,20.67
2023-10-24T15:47:31.919Z,25.50
2023-10-24T15:50:00.350Z,16.00
2023-10-24T15:52:26.902Z,21.00
2023-10-24T15:54:54.445Z,19.67
2023-10-24T15:57:22.095Z,22.67
2023-10-24T15:59:48.651Z,22.00
2023-10-24T16:02:15.368Z,26.50
2023-10-24T16:04:42.179Z,24.50
2023-10-24T16:07:08.895Z,22.50
2023-10-24T16:09:35.456Z,25.00
2023-10-24T16:12:02.005Z,22.00
2023-10-24T16:14:29.453Z,25.67
2023-10-24T16:16:56.020Z,30.50
2023-10-24T16:19:22.770Z,26.50
2023-10-24T16:21:49.332Z,24.50
2023-10-24T16:24:15.876Z,26.50
2023-10-24T16:26:42.472Z,27.50
2023-10-24T16:29:09.082Z,29.50
2023-10-24T16:31:36.683Z,28.00
2023-10-24T16:34:03.285Z,28.00
2023-10-24T16:36:29.877Z,32.50
2023-10-24T16:38:56.418Z,39.00
2023-10-24T16:41:22.949Z,31.50
2023-10-24T16:43:49.559Z,34.00
2023-10-24T16:46:16.163Z,33.00
2023-10-24T16:48:42.732Z,35.50
2023-10-24T16:51:12.090Z,38.50
2023-10-24T16:53:38.932Z,29.50
2023-10-24T16:58:59.535Z,36.00
2023-10-24T17:01:26.113Z,35.00
2023-10-24T17:03:53.657Z,38.33
2023-10-24T17:06:21.250Z,36.00
2023-10-24T17:08:47.834Z,37.50
2023-10-24T17:13:58.349Z,39.50
2023-10-24T17:16:24.961Z,46.50
2023-10-24T17:18:51.539Z,56.00
2023-10-24T17:21:19.094Z,55.50
2023-10-24T17:23:45.660Z,51.00
2023-10-24T17:28:57.112Z,47.00
2023-10-24T17:31:24.668Z,46.00
2023-10-24T17:33:52.150Z,44.33
2023-10-24T17:36:19.682Z,47.00
2023-10-24T17:38:47.157Z,45.33
2023-10-24T17:44:27.399Z,44.67
2023-10-24T17:46:55.152Z,42.00
2023-10-24T17:49:22.682Z,46.00
2023-10-24T17:51:50.154Z,42.00
2023-10-24T17:54:16.703Z,41.00
2023-10-24T17:59:29.092Z,36.33
2023-10-24T18:01:56.710Z,38.00
2023-10-24T18:04:23.607Z,45.50
2023-10-24T18:06:50.250Z,34.00
2023-10-24T18:09:17.778Z,35.67
2023-10-24T18:14:29.211Z,35.50
2023-10-24T18:16:55.791Z,36.50
2023-10-24T18:19:22.372Z,36.00
2023-10-24T18:21:48.918Z,37.50
2023-10-24T18:24:15.495Z,46.50
2023-10-24T18:29:25.995Z,46.00
2023-10-24T18:31:52.621Z,53.00
2023-10-24T18:34:19.219Z,57.00
2023-10-24T18:36:45.795Z,53.00
2023-10-24T18:39:12.394Z,48.00
2023-10-24T18:44:24.564Z,45.00
2023-10-24T18:46:52.124Z,37.33
2023-10-24T18:49:18.805Z,39.00
2023-10-24T18:51:45.515Z,34.00
2023-10-24T18:54:13.049Z,60.00
2023-10-24T18:59:25.630Z,49.33
2023-10-24T19:01:52.243Z,45.00
2023-10-24T19:04:19.843Z,69.00
2023-10-24T19:06:48.224Z,73.33
2023-10-24T19:09:14.840Z,57.50
2023-10-24T19:14:30.207Z,48.33
2023-10-24T19:16:57.037Z,44.50
2023-10-24T19:19:23.613Z,40.50
2023-10-24T19:21:50.331Z,36.00
2023-10-24T19:24:17.861Z,38.00
2023-10-24T19:29:28.484Z,37.00
2023-10-24T19:31:55.040Z,35.00
2023-10-24T19:34:22.524Z,32.50
2023-10-24T19:36:49.140Z,31.00
2023-10-24T19:39:16.671Z,31.00
2023-10-24T19:44:27.385Z,29.50
2023-10-24T19:46:54.874Z,29.50
2023-10-24T19:49:22.555Z,29.00
2023-10-24T19:51:49.244Z,26.00
2023-10-24T19:54:16.797Z,25.00
2023-10-24T19:59:27.545Z,33.00
2023-10-24T20:01:55.089Z,28.00
2023-10-24T20:04:21.767Z,28.50
2023-10-24T20:06:49.362Z,27.00
2023-10-24T20:09:16.642Z,25.00
2023-10-24T20:12:36.804Z,26.00
2023-10-24T20:14:30.689Z,34.00
2023-10-24T20:16:58.281Z,30.00
2023-10-24T20:19:24.915Z,29.00
2023-10-24T20:21:52.477Z,27.50
2023-10-24T20:24:19.993Z,25.50
2023-10-24T20:26:46.551Z,26.50
2023-10-24T20:29:14.042Z,29.00
2023-10-24T20:31:40.719Z,25.50
2023-10-24T20:34:08.418Z,24.00
2023-10-24T20:36:44.037Z,27.00
2023-10-24T20:39:22.214Z,25.00
2023-10-24T20:41:49.707Z,28.67
2023-10-24T20:44:17.170Z,31.00
2023-10-24T20:46:44.662Z,31.00
2023-10-24T20:49:12.239Z,62.00
2023-10-24T20:51:39.892Z,48.67
2023-10-24T20:54:06.485Z,32.50
2023-10-24T20:56:33.083Z,36.00
2023-10-24T20:58:59.619Z,38.50
2023-10-24T21:01:27.285Z,36.67
2023-10-24T21:03:54.864Z,31.00
2023-10-24T21:06:22.370Z,28.00
2023-10-24T21:08:48.953Z,27.50
2023-10-24T21:11:15.486Z,28.50
2023-10-24T21:13:42.163Z,26.00
2023-10-24T21:16:11.889Z,29.50
2023-10-24T21:18:40.050Z,26.00
2023-10-24T21:21:06.733Z,29.50
2023-10-24T21:23:33.265Z,27.00
2023-10-24T21:26:00.734Z,26.67
2023-10-24T21:28:28.200Z,24.33
2023-10-24T21:30:55.731Z,24.67
2023-10-24T21:33:22.346Z,24.00
2023-10-24T21:35:49.816Z,24.67
2023-10-24T21:38:17.290Z,28.00
2023-10-24T21:40:43.845Z,24.00
2023-10-24T21:43:10.423Z,26.00
2023-10-24T21:48:22.047Z,23.50
2023-10-24T21:50:48.571Z,23.00
2023-10-24T21:53:15.190Z,22.00
2023-10-24T21:55:42.652Z,23.67
2023-10-24T21:58:09.275Z,23.00
2023-10-24T22:03:20.907Z,23.00
2023-10-24T22:05:47.480Z,22.00
2023-10-24T22:08:14.030Z,24.50
2023-10-24T22:10:41.481Z,20.33
2023-10-24T22:13:08.035Z,20.50
2023-10-24T22:18:19.741Z,20.67
2023-10-24T22:20:47.213Z,21.00
2023-10-24T22:23:13.761Z,24.50
2023-10-24T22:25:41.176Z,18.67
2023-10-24T22:28:07.715Z,18.00
2023-10-24T22:33:19.129Z,18.33
2023-10-24T22:35:46.581Z,20.67
2023-10-24T22:38:13.189Z,23.00
2023-10-24T22:40:39.711Z,21.00
2023-10-24T22:43:07.193Z,19.67
2023-10-24T22:48:18.433Z,19.00
2023-10-24T22:50:44.956Z,22.50
2023-10-24T22:53:11.468Z,18.00
2023-10-24T22:55:38.892Z,17.67
2023-10-24T22:58:05.458Z,20.00
2023-10-24T23:03:17.109Z,17.00
2023-10-24T23:05:43.672Z,17.00
2023-10-24T23:08:12.038Z,11.80
2023-10-24T23:10:38.649Z,18.50
2023-10-24T23:13:06.167Z,17.33
2023-10-24T23:18:18.523Z,15.67
2023-10-24T23:20:45.964Z,18.33
2023-10-24T23:23:12.482Z,18.00
2023-10-24T23:25:39.895Z,24.00
2023-10-24T23:28:07.410Z,17.33
2023-10-24T23:33:19.366Z,18.00
2023-10-24T23:35:45.861Z,17.00
2023-10-24T23:38:12.341Z,20.00
2023-10-24T23:40:39.699Z,17.00
2023-10-24T23:43:06.282Z,19.00
2023-10-24T23:48:17.866Z,18.00
2023-10-24T23:50:45.280Z,19.00
2023-10-24T23:53:13.630Z,14.00
2023-10-24T23:55:40.131Z,18.50
2023-10-24T23:58:06.683Z,17.00
